Time;durP1;ratioP1;P1;durP2;ratioP2;P2;SDS_P1;SDS_P2;PMS_P1;PMS_P2;Temp;Humidity;BMP_temperature;BMP_pressure;BME280_temperature;BME280_humidity;BME280_pressure;Samples;Min_cycle;Max_cycle;Signal;HPM_P1;HPM_P2
2021/10/06 00:01:11;;;;;;;5.43;5.23;;;11.70;99.90;;;;;;5053182;28;20452;-58
2021/10/06 00:03:37;;;;;;;5.90;5.33;;;11.70;99.90;;;;;;5053545;28;20991;-56
2021/10/06 00:06:04;;;;;;;5.93;5.13;;;11.70;99.90;;;;;;5053460;28;20444;-57
2021/10/06 00:08:31;;;;;;;5.60;5.20;;;11.70;99.90;;;;;;5053155;28;20487;-59
2021/10/06 00:10:58;;;;;;;7.33;6.10;;;11.70;99.90;;;;;;5035324;28;20450;-59
2021/10/06 00:13:24;;;;;;;6.57;6.03;;;11.70;99.90;;;;;;5033296;28;20829;-57
2021/10/06 00:15:52;;;;;;;5.97;5.80;;;11.80;99.90;;;;;;5033306;28;20441;-59
2021/10/06 00:18:19;;;;;;;6.20;5.90;;;11.80;99.90;;;;;;5033119;28;20957;-58
2021/10/06 00:20:46;;;;;;;7.27;6.00;;;11.80;99.90;;;;;;5048951;28;20448;-58
2021/10/06 00:23:12;;;;;;;6.53;6.13;;;11.80;99.90;;;;;;5053050;28;20468;-59
2021/10/06 00:25:39;;;;;;;7.50;6.87;;;11.70;99.90;;;;;;5053112;28;20440;-58
2021/10/06 00:28:06;;;;;;;6.23;5.93;;;11.70;99.90;;;;;;5044882;28;20481;-58
2021/10/06 00:30:33;;;;;;;6.23;5.90;;;11.60;99.90;;;;;;5032954;28;20787;-59
2021/10/06 00:33:01;;;;;;;6.43;6.13;;;11.60;99.90;;;;;;5032975;28;20452;-59
2021/10/06 00:35:27;;;;;;;6.97;6.53;;;11.50;99.90;;;;;;5032945;28;20441;-56
2021/10/06 00:37:54;;;;;;;6.83;6.40;;;11.50;99.90;;;;;;5038170;28;20956;-58
2021/10/06 00:40:21;;;;;;;6.63;6.33;;;11.40;99.90;;;;;;5052811;28;20451;-59
2021/10/06 00:42:47;;;;;;;5.97;5.57;;;11.40;99.90;;;;;;5052580;28;20440;-58
2021/10/06 00:45:14;;;;;;;6.50;5.87;;;11.40;99.90;;;;;;5041929;28;20445;-58
2021/10/06 00:47:41;;;;;;;6.53;6.07;;;11.40;99.90;;;;;;5032661;28;20477;-60
2021/10/06 00:50:10;;;;;;;6.00;5.70;;;11.30;99.90;;;;;;5032715;28;20816;-61
2021/10/06 00:52:36;;;;;;;7.00;6.50;;;11.30;99.90;;;;;;5032521;28;20927;-60
2021/10/06 00:55:04;;;;;;;7.00;6.60;;;11.30;99.90;;;;;;5040872;28;20476;-61
2021/10/06 00:57:31;;;;;;;6.20;5.90;;;11.30;99.90;;;;;;5052437;28;20448;-59
2021/10/06 00:59:59;;;;;;;6.10;5.90;;;11.30;99.90;;;;;;5051889;28;20456;-61
2021/10/06 01:02:26;;;;;;;6.13;5.83;;;11.20;99.90;;;;;;5052505;28;20535;-59
2021/10/06 01:04:53;;;;;;;7.20;6.50;;;11.20;99.90;;;;;;5044942;28;20523;-60
2021/10/06 01:07:21;;;;;;;8.03;6.47;;;11.20;99.90;;;;;;5032385;28;20825;-61
2021/10/06 01:09:48;;;;;;;7.03;6.47;;;11.20;99.90;;;;;;5031996;28;20484;-60
2021/10/06 01:12:15;;;;;;;7.50;6.90;;;11.10;99.90;;;;;;5035843;28;20450;-59
2021/10/06 01:14:42;;;;;;;7.53;6.67;;;11.10;99.90;;;;;;5052109;28;20558;-58
2021/10/06 01:17:09;;;;;;;8.70;7.03;;;11.10;99.90;;;;;;5052154;28;20451;-59
2021/10/06 01:19:35;;;;;;;7.13;6.73;;;11.10;99.90;;;;;;5051867;28;20440;-61
2021/10/06 01:22:04;;;;;;;5.93;5.70;;;11.10;99.90;;;;;;5050048;28;20439;-59
2021/10/06 01:24:31;;;;;;;5.80;5.50;;;11.10;99.90;;;;;;5031984;28;20873;-61
2021/10/06 01:26:59;;;;;;;6.67;6.00;;;11.10;99.90;;;;;;5032203;28;20445;-61
2021/10/06 01:29:25;;;;;;;6.60;6.20;;;11.10;99.90;;;;;;5032658;28;20832;-59
2021/10/06 01:31:52;;;;;;;8.40;6.60;;;11.20;99.90;;;;;;5031871;28;20468;-61
2021/10/06 01:34:21;;;;;;;8.33;5.83;;;11.10;99.90;;;;;;5031840;28;20461;-57
2021/10/06 01:36:50;;;;;;;5.90;5.60;;;11.20;99.90;;;;;;5031912;28;20449;-58
2021/10/06 01:39:20;;;;;;;7.10;6.40;;;11.20;99.90;;;;;;5035033;28;20949;-58
2021/10/06 01:41:48;;;;;;;5.70;5.50;;;11.20;99.90;;;;;;5051651;28;20452;-60
2021/10/06 01:44:16;;;;;;;5.80;5.30;;;11.10;99.90;;;;;;5051479;28;20467;-60
2021/10/06 01:46:44;;;;;;;8.47;6.67;;;11.10;99.90;;;;;;5051700;28;20453;-59
2021/10/06 01:49:11;;;;;;;7.27;6.87;;;11.10;99.90;;;;;;5048734;28;20527;-58
2021/10/06 01:51:38;;;;;;;6.70;6.00;;;11.10;99.90;;;;;;5031690;28;20449;-59
2021/10/06 01:54:05;;;;;;;7.80;5.83;;;11.10;99.90;;;;;;5031549;28;20480;-61
2021/10/06 01:56:34;;;;;;;7.20;6.47;;;11.20;99.90;;;;;;5031616;28;20506;-60
2021/10/06 01:59:01;;;;;;;8.33;7.00;;;11.30;99.90;;;;;;5031944;28;20440;-59
2021/10/06 02:01:28;;;;;;;6.23;5.77;;;11.30;99.90;;;;;;5051403;28;20448;-61
2021/10/06 02:03:54;;;;;;;6.67;5.97;;;11.40;99.90;;;;;;5050879;28;20525;-59
2021/10/06 02:06:21;;;;;;;7.00;6.50;;;11.40;99.90;;;;;;5051433;28;20447;-60
2021/10/06 02:08:48;;;;;;;6.73;6.37;;;11.50;99.90;;;;;;5051073;28;20517;-59
2021/10/06 02:11:15;;;;;;;8.03;7.43;;;11.50;99.90;;;;;;5032299;28;20456;-58
2021/10/06 02:13:43;;;;;;;7.03;6.60;;;11.40;99.90;;;;;;5031285;28;20810;-59
2021/10/06 02:16:10;;;;;;;8.90;6.43;;;11.40;99.90;;;;;;5031540;28;20860;-57
2021/10/06 02:18:36;;;;;;;6.40;6.00;;;11.40;99.90;;;;;;5031270;28;21017;-57
2021/10/06 02:21:03;;;;;;;6.87;6.37;;;11.40;99.90;;;;;;5048140;28;20463;-62
2021/10/06 02:23:30;;;;;;;7.87;7.27;;;11.40;99.90;;;;;;5050796;28;20468;-61
2021/10/06 02:25:57;;;;;;;8.03;7.00;;;11.40;99.90;;;;;;5051249;28;20444;-59
2021/10/06 02:28:24;;;;;;;6.87;6.43;;;11.40;99.90;;;;;;5050851;28;21000;-61
2021/10/06 02:30:52;;;;;;;7.53;7.03;;;11.50;99.90;;;;;;5036120;28;20449;-57
2021/10/06 02:33:18;;;;;;;7.43;7.03;;;11.50;99.90;;;;;;5031412;28;20823;-58
2021/10/06 02:35:45;;;;;;;7.00;6.50;;;11.60;99.90;;;;;;5031125;28;20518;-59
2021/10/06 02:38:12;;;;;;;9.17;7.07;;;11.70;99.90;;;;;;5037679;28;20531;-58
2021/10/06 02:40:39;;;;;;;9.57;7.73;;;11.80;99.90;;;;;;5051023;28;20451;-58
2021/10/06 02:43:06;;;;;;;8.90;8.00;;;11.80;99.90;;;;;;5051010;28;20885;-59
2021/10/06 02:45:32;;;;;;;8.87;8.30;;;11.90;99.90;;;;;;5050956;28;20452;-60
2021/10/06 02:48:00;;;;;;;7.27;6.80;;;11.90;99.90;;;;;;5031913;28;20451;-58
2021/10/06 02:50:27;;;;;;;7.80;7.40;;;11.90;99.90;;;;;;5031006;28;20440;-58
2021/10/06 02:52:54;;;;;;;8.67;7.90;;;11.90;99.90;;;;;;5030740;28;20444;-61
2021/10/06 02:55:21;;;;;;;8.47;7.67;;;11.90;99.90;;;;;;5031058;28;20495;-58
2021/10/06 02:57:48;;;;;;;9.00;8.13;;;11.90;99.90;;;;;;5047464;28;20462;-58
2021/10/06 03:00:15;;;;;;;8.13;7.83;;;11.80;99.90;;;;;;5050780;28;20440;-58
2021/10/06 03:02:42;;;;;;;8.37;7.87;;;11.80;99.90;;;;;;5050777;28;20929;-58
2021/10/06 03:05:11;;;;;;;9.30;8.70;;;11.80;99.90;;;;;;5050789;28;20440;-57
2021/10/06 03:07:38;;;;;;;8.80;7.60;;;11.70;99.90;;;;;;5035198;28;20441;-57
2021/10/06 03:10:06;;;;;;;9.70;9.10;;;11.60;99.90;;;;;;5030662;28;20488;-56
2021/10/06 03:12:33;;;;;;;10.00;9.07;;;11.60;99.90;;;;;;5030751;28;20448;-57
2021/10/06 03:15:00;;;;;;;10.37;7.70;;;11.60;99.90;;;;;;5030784;28;20994;-58
2021/10/06 03:17:26;;;;;;;7.30;6.80;;;11.50;99.90;;;;;;5047476;28;20945;-61
2021/10/06 03:19:53;;;;;;;7.87;7.30;;;11.50;99.90;;;;;;5054134;28;20805;-59
2021/10/06 03:22:21;;;;;;;8.80;8.10;;;11.50;99.90;;;;;;5054346;28;20471;-59
2021/10/06 03:24:48;;;;;;;8.73;8.20;;;11.50;99.90;;;;;;5054089;28;20456;-58
2021/10/06 03:27:16;;;;;;;8.43;7.70;;;11.50;99.90;;;;;;5042157;28;20456;-56
2021/10/06 03:29:43;;;;;;;8.13;7.83;;;11.50;99.90;;;;;;5033994;28;20487;-57
2021/10/06 03:32:10;;;;;;;11.70;9.73;;;11.50;99.90;;;;;;5034176;28;20471;-58
2021/10/06 03:34:37;;;;;;;10.23;9.67;;;11.60;99.90;;;;;;5034222;28;20468;-59
2021/10/06 03:37:04;;;;;;;9.50;9.00;;;11.60;99.90;;;;;;5043694;28;20452;-61
2021/10/06 03:39:32;;;;;;;9.70;9.40;;;11.70;99.90;;;;;;5053847;28;20444;-59
2021/10/06 03:41:58;;;;;;;9.80;9.30;;;11.70;99.90;;;;;;5054076;28;20466;-57
2021/10/06 03:44:25;;;;;;;10.10;9.60;;;11.80;99.90;;;;;;5050721;28;20472;-58
2021/10/06 03:46:52;;;;;;;11.03;10.50;;;11.80;99.90;;;;;;5053777;28;20448;-60
2021/10/06 03:49:19;;;;;;;10.37;9.87;;;11.80;99.90;;;;;;5053551;28;20480;-58
2021/10/06 03:51:45;;;;;;;11.20;10.47;;;11.90;99.90;;;;;;5053783;28;20440;-60
2021/10/06 03:54:12;;;;;;;11.47;10.50;;;11.80;99.90;;;;;;5039369;28;21033;-57
2021/10/06 03:56:40;;;;;;;10.80;10.30;;;11.80;99.90;;;;;;5033857;28;20452;-58
2021/10/06 03:59:07;;;;;;;10.23;9.73;;;11.80;99.90;;;;;;5033436;28;20444;-59
2021/10/06 04:01:33;;;;;;;10.20;9.90;;;11.80;99.90;;;;;;5033619;28;20444;-62
2021/10/06 04:04:00;;;;;;;11.00;10.03;;;11.90;99.90;;;;;;5045727;28;20479;-60
2021/10/06 04:06:27;;;;;;;10.93;10.33;;;11.90;99.90;;;;;;5053403;28;20444;-60
2021/10/06 04:08:54;;;;;;;11.77;10.73;;;11.90;99.90;;;;;;5053043;28;21027;-60
2021/10/06 04:11:20;;;;;;;10.53;10.13;;;11.90;99.90;;;;;;5053331;28;20451;-59
2021/10/06 04:13:48;;;;;;;10.90;10.43;;;11.90;99.90;;;;;;5042608;28;20477;-60
2021/10/06 04:16:15;;;;;;;12.60;11.60;;;12.00;99.90;;;;;;5033408;28;20441;-60
2021/10/06 04:18:42;;;;;;;11.23;10.73;;;12.00;99.90;;;;;;5033062;28;20444;-58
2021/10/06 04:21:08;;;;;;;11.03;10.73;;;12.00;99.90;;;;;;5033203;28;20441;-60
2021/10/06 04:23:35;;;;;;;10.80;10.40;;;12.00;99.90;;;;;;5041612;28;20475;-58
2021/10/06 04:26:02;;;;;;;12.77;11.87;;;12.00;99.90;;;;;;5052715;28;20448;-58
2021/10/06 04:28:29;;;;;;;11.70;10.90;;;12.00;99.90;;;;;;5052612;28;20443;-62
2021/10/06 04:30:57;;;;;;;11.27;10.77;;;12.00;99.90;;;;;;5034346;28;21012;-58
2021/10/06 04:33:23;;;;;;;12.57;11.47;;;12.00;99.90;;;;;;5013458;28;20463;-63
2021/10/06 04:35:50;;;;;;;12.00;11.33;;;12.10;99.90;;;;;;5016190;28;20453;-62
2021/10/06 04:38:17;;;;;;;12.30;11.20;;;12.20;99.90;;;;;;5035353;28;20445;-63
2021/10/06 04:40:43;;;;;;;11.90;11.20;;;12.20;99.90;;;;;;5053192;28;20440;-62
2021/10/06 04:43:11;;;;;;;12.93;11.83;;;12.30;99.90;;;;;;5053607;28;20464;-60
2021/10/06 04:45:38;;;;;;;11.97;11.27;;;12.30;99.90;;;;;;5053399;28;20478;-63
2021/10/06 04:48:06;;;;;;;12.13;11.60;;;12.30;99.90;;;;;;5052091;28;20447;-62
2021/10/06 04:50:33;;;;;;;11.90;11.40;;;12.20;99.90;;;;;;5052555;28;20817;-62
2021/10/06 04:53:00;;;;;;;11.23;10.80;;;12.30;99.90;;;;;;5052348;28;20440;-63
2021/10/06 04:55:26;;;;;;;11.80;11.07;;;12.30;99.90;;;;;;5052458;28;20463;-61
2021/10/06 04:57:54;;;;;;;12.83;11.97;;;12.30;99.90;;;;;;5052292;28;20877;-63
2021/10/06 05:00:21;;;;;;;12.10;11.20;;;12.40;99.90;;;;;;5052470;28;20466;-63
2021/10/06 05:02:48;;;;;;;12.07;11.40;;;12.40;99.90;;;;;;5052097;28;20456;-63
2021/10/06 05:05:16;;;;;;;11.57;11.07;;;12.40;99.90;;;;;;5052375;28;20440;-61
2021/10/06 05:07:43;;;;;;;12.07;11.37;;;12.40;99.90;;;;;;5052166;28;20447;-64
2021/10/06 05:10:10;;;;;;;12.87;12.10;;;12.40;99.90;;;;;;5051855;28;20486;-62
2021/10/06 05:12:37;;;;;;;12.07;11.40;;;12.40;99.90;;;;;;5052316;28;20436;-63
2021/10/06 05:15:04;;;;;;;11.47;10.97;;;12.40;99.90;;;;;;5052004;28;21001;-60
2021/10/06 05:17:31;;;;;;;12.07;11.43;;;12.40;99.90;;;;;;5052273;28;20448;-62
2021/10/06 05:19:57;;;;;;;12.83;12.10;;;12.50;99.90;;;;;;5051869;28;20448;-59
2021/10/06 05:22:25;;;;;;;13.00;12.23;;;12.50;99.90;;;;;;5052062;28;20448;-62
2021/10/06 05:24:52;;;;;;;12.57;11.63;;;12.50;99.90;;;;;;5051884;28;20487;-63
2021/10/06 05:27:19;;;;;;;12.70;11.90;;;12.50;99.90;;;;;;5051892;28;20452;-59
2021/10/06 05:29:45;;;;;;;11.90;11.40;;;12.50;99.90;;;;;;5051657;28;20476;-61
2021/10/06 05:32:12;;;;;;;11.90;11.40;;;12.50;99.90;;;;;;5051694;28;20443;-61
2021/10/06 05:34:39;;;;;;;12.10;11.50;;;12.50;99.90;;;;;;5051808;28;20468;-62
2021/10/06 05:37:05;;;;;;;12.93;11.80;;;12.50;99.90;;;;;;5051764;28;20463;-61
2021/10/06 05:39:33;;;;;;;12.50;11.80;;;12.50;99.90;;;;;;5050758;28;20456;-61
2021/10/06 05:42:00;;;;;;;12.67;12.17;;;12.50;99.90;;;;;;5051732;28;20789;-61
2021/10/06 05:44:27;;;;;;;12.47;11.97;;;12.50;99.90;;;;;;5051602;28;20464;-61
2021/10/06 05:46:53;;;;;;;13.30;12.60;;;12.50;99.90;;;;;;5051532;28;20451;-61
2021/10/06 05:49:20;;;;;;;13.27;12.47;;;12.50;99.90;;;;;;5051429;28;20476;-60
2021/10/06 05:51:47;;;;;;;12.87;11.90;;;12.50;99.90;;;;;;5051418;28;20854;-63
2021/10/06 05:54:13;;;;;;;13.67;12.67;;;12.60;99.90;;;;;;5051246;28;20475;-61
2021/10/06 05:56:42;;;;;;;13.80;13.00;;;12.60;99.90;;;;;;5051326;28;20444;-61
2021/10/06 05:59:08;;;;;;;12.00;11.60;;;12.70;99.90;;;;;;5051173;28;20448;-62
2021/10/06 06:01:35;;;;;;;14.07;12.87;;;12.70;99.90;;;;;;5051385;28;20467;-64
2021/10/06 06:04:02;;;;;;;13.37;12.60;;;12.70;99.90;;;;;;5051409;28;20464;-64
2021/10/06 06:06:28;;;;;;;12.03;11.63;;;12.80;99.90;;;;;;5051295;28;20440;-64
2021/10/06 06:08:55;;;;;;;13.57;12.77;;;12.70;99.90;;;;;;5051053;28;20455;-64
2021/10/06 06:11:23;;;;;;;12.43;11.93;;;12.70;99.90;;;;;;5051308;28;20487;-64
2021/10/06 06:13:51;;;;;;;12.00;11.37;;;12.60;99.90;;;;;;5051322;28;20470;-64
2021/10/06 06:16:18;;;;;;;11.23;10.83;;;12.40;99.90;;;;;;5051197;28;20871;-64
2021/10/06 06:18:45;;;;;;;11.60;11.10;;;12.30;99.90;;;;;;5051053;28;20455;-64
2021/10/06 06:21:12;;;;;;;11.23;10.67;;;12.30;99.90;;;;;;5051295;28;20436;-64
2021/10/06 06:23:39;;;;;;;11.03;10.43;;;12.20;99.90;;;;;;5051145;28;20464;-64
2021/10/06 06:26:06;;;;;;;10.43;9.93;;;12.20;99.90;;;;;;5051051;28;20448;-63
2021/10/06 06:28:32;;;;;;;11.60;10.70;;;12.10;99.90;;;;;;5050792;28;20829;-65
2021/10/06 06:31:00;;;;;;;11.03;10.50;;;12.10;99.90;;;;;;5050874;28;20479;-65
2021/10/06 06:33:27;;;;;;;11.57;10.83;;;12.10;99.90;;;;;;5051130;28;20467;-65
2021/10/06 06:35:54;;;;;;;10.27;9.77;;;11.90;99.90;;;;;;5051048;28;20448;-63
2021/10/06 06:38:20;;;;;;;11.07;10.27;;;11.90;99.90;;;;;;5050844;28;20448;-65
2021/10/06 06:40:47;;;;;;;11.13;10.13;;;11.80;99.90;;;;;;5050876;28;20444;-65
2021/10/06 06:43:14;;;;;;;9.33;8.93;;;11.80;99.90;;;;;;5051052;28;20471;-64
2021/10/06 06:45:40;;;;;;;9.57;8.90;;;11.70;99.90;;;;;;5050965;28;20440;-64
2021/10/06 06:48:09;;;;;;;11.53;8.50;;;11.70;99.90;;;;;;5050810;28;20444;-64
2021/10/06 06:50:35;;;;;;;8.50;8.10;;;11.70;99.90;;;;;;5053113;28;20557;-65
2021/10/06 06:53:02;;;;;;;8.63;8.33;;;11.70;99.90;;;;;;5054643;28;20440;-64
2021/10/06 06:55:29;;;;;;;9.10;8.60;;;11.70;99.90;;;;;;5054690;28;20455;-64
2021/10/06 06:57:56;;;;;;;7.37;7.07;;;11.60;99.90;;;;;;5054704;28;20448;-65
2021/10/06 07:00:23;;;;;;;7.13;6.50;;;11.50;99.90;;;;;;5054654;28;20801;-64
2021/10/06 07:02:50;;;;;;;18.27;7.70;;;11.50;99.90;;;;;;5054526;28;20447;-65
2021/10/06 07:05:18;;;;;;;8.13;7.37;;;11.50;99.90;;;;;;5054467;28;20639;-65
2021/10/06 07:07:47;;;;;;;6.73;6.23;;;11.50;99.90;;;;;;5054408;28;20458;-64
2021/10/06 07:10:14;;;;;;;8.43;7.13;;;11.50;99.90;;;;;;5054310;28;20538;-66
2021/10/06 07:12:41;;;;;;;11.03;5.80;;;11.50;99.90;;;;;;5054455;28;20466;-64
2021/10/06 07:15:08;;;;;;;10.10;6.73;;;11.50;99.90;;;;;;5054344;28;20466;-64
2021/10/06 07:17:35;;;;;;;6.53;6.07;;;11.60;99.90;;;;;;5054769;28;20440;-65
2021/10/06 07:20:02;;;;;;;8.43;6.40;;;11.60;99.90;;;;;;5054194;28;20451;-65
2021/10/06 07:22:30;;;;;;;7.20;6.50;;;11.70;99.90;;;;;;5054440;28;20455;-65
2021/10/06 07:24:57;;;;;;;6.87;6.57;;;11.70;99.90;;;;;;5054255;28;20961;-65
2021/10/06 07:27:24;;;;;;;7.10;6.43;;;11.70;99.90;;;;;;5054241;28;20448;-65
2021/10/06 07:29:50;;;;;;;10.40;6.87;;;11.70;99.90;;;;;;5053650;28;20997;-66
2021/10/06 07:32:17;;;;;;;7.13;6.70;;;11.70;99.90;;;;;;5054008;28;20466;-65
2021/10/06 07:34:44;;;;;;;6.83;6.30;;;11.80;99.90;;;;;;5053943;28;21000;-65
2021/10/06 07:37:10;;;;;;;7.17;6.63;;;11.90;99.90;;;;;;5054062;28;20501;-65
2021/10/06 07:39:39;;;;;;;6.90;6.40;;;12.10;99.90;;;;;;5053807;28;20444;-65
2021/10/06 07:42:06;;;;;;;6.83;6.17;;;12.20;99.90;;;;;;5053887;28;20444;-65
2021/10/06 07:44:33;;;;;;;11.47;7.40;;;12.30;99.90;;;;;;5053894;28;20475;-65
2021/10/06 07:47:00;;;;;;;7.10;6.90;;;12.50;99.90;;;;;;5053721;28;20468;-64
2021/10/06 07:49:26;;;;;;;7.47;7.00;;;12.50;99.90;;;;;;5053570;28;20447;-65
2021/10/06 07:51:53;;;;;;;8.17;7.77;;;12.60;99.90;;;;;;5053691;28;20856;-65
2021/10/06 07:54:20;;;;;;;9.50;8.60;;;12.50;99.90;;;;;;5053452;28;20476;-65
2021/10/06 07:56:48;;;;;;;8.50;8.00;;;12.50;99.90;;;;;;5053643;28;20444;-65
2021/10/06 07:59:14;;;;;;;8.97;8.30;;;12.40;99.90;;;;;;5053391;28;20858;-65
2021/10/06 08:01:43;;;;;;;8.93;7.40;;;12.30;99.90;;;;;;5052806;28;20433;-65
2021/10/06 08:04:10;;;;;;;8.27;7.97;;;12.30;99.90;;;;;;5053369;28;20982;-65
2021/10/06 08:06:37;;;;;;;9.63;8.87;;;12.30;99.90;;;;;;5053435;28;20443;-65
2021/10/06 08:09:05;;;;;;;8.17;7.67;;;12.30;99.90;;;;;;5053150;28;20445;-65
2021/10/06 08:11:32;;;;;;;8.07;7.67;;;12.40;99.90;;;;;;5053265;28;20522;-65
2021/10/06 08:14:00;;;;;;;15.73;8.40;;;12.50;99.90;;;;;;5053178;28;20464;-65
2021/10/06 08:16:26;;;;;;;9.07;8.67;;;12.40;99.90;;;;;;5053284;28;20452;-64
2021/10/06 08:18:53;;;;;;;9.40;9.00;;;12.50;99.90;;;;;;5052899;28;20794;-65
2021/10/06 08:21:20;;;;;;;8.70;8.30;;;12.50;99.90;;;;;;5053061;28;20444;-64
2021/10/06 08:23:47;;;;;;;9.43;9.07;;;12.70;99.90;;;;;;5053017;28;20468;-64
2021/10/06 08:26:13;;;;;;;10.23;9.60;;;12.80;99.90;;;;;;5053192;28;20484;-65
2021/10/06 08:28:40;;;;;;;9.90;9.53;;;12.90;99.90;;;;;;5052891;28;20942;-65
2021/10/06 08:31:08;;;;;;;10.00;9.43;;;12.90;99.90;;;;;;5052958;28;20475;-64
2021/10/06 08:33:35;;;;;;;11.40;10.70;;;13.00;99.90;;;;;;5052814;28;20468;-64
2021/10/06 08:36:02;;;;;;;11.10;10.60;;;13.20;99.90;;;;;;5052834;28;20444;-65
2021/10/06 08:38:28;;;;;;;11.53;10.63;;;13.50;99.90;;;;;;5052560;28;20443;-64
2021/10/06 08:40:56;;;;;;;11.77;11.00;;;13.50;99.90;;;;;;5052873;28;20455;-64
2021/10/06 08:43:23;;;;;;;12.63;11.30;;;13.40;99.90;;;;;;5052629;28;20477;-65
2021/10/06 08:45:50;;;;;;;11.53;11.03;;;13.30;99.90;;;;;;5052503;28;20455;-64
2021/10/06 08:48:18;;;;;;;11.50;11.10;;;13.30;99.90;;;;;;5052355;28;20444;-64
2021/10/06 08:50:44;;;;;;;12.40;11.50;;;13.30;99.90;;;;;;5052597;28;20957;-64
2021/10/06 08:53:12;;;;;;;11.37;10.97;;;13.10;99.90;;;;;;5052281;28;20889;-65
2021/10/06 08:55:39;;;;;;;11.63;11.07;;;13.30;99.90;;;;;;5052507;28;20934;-65
2021/10/06 08:58:08;;;;;;;11.20;10.90;;;13.50;99.90;;;;;;5052206;28;20448;-65
2021/10/06 09:00:51;;;;;;;12.17;11.70;;;13.70;99.90;;;;;;5052352;28;20432;-65
2021/10/06 09:03:25;;;;;;;12.50;12.00;;;13.80;99.90;;;;;;5052339;28;20462;-65
2021/10/06 09:06:00;;;;;;;11.90;11.50;;;13.80;99.90;;;;;;5052302;28;20435;-64
2021/10/06 09:08:27;;;;;;;13.13;12.40;;;13.90;99.90;;;;;;5052023;28;20758;-64
2021/10/06 09:10:54;;;;;;;13.30;12.80;;;13.90;99.90;;;;;;5052127;28;20483;-64
2021/10/06 09:13:26;;;;;;;13.90;13.20;;;13.80;99.90;;;;;;5052275;28;20464;-64
2021/10/06 09:15:53;;;;;;;13.60;12.90;;;13.70;99.90;;;;;;5052128;28;20444;-64
2021/10/06 09:18:23;;;;;;;13.70;13.00;;;13.90;99.90;;;;;;5051951;28;20502;-64
2021/10/06 09:20:51;;;;;;;13.97;13.40;;;14.00;99.90;;;;;;5052000;28;20440;-64
2021/10/06 09:23:21;;;;;;;13.63;13.03;;;13.90;99.90;;;;;;5051846;28;20470;-64
2021/10/06 09:25:50;;;;;;;15.03;14.13;;;14.10;99.90;;;;;;5052060;28;20445;-63
2021/10/06 09:28:25;;;;;;;14.40;13.90;;;14.60;99.90;;;;;;5051863;28;20443;-64
2021/10/06 09:30:57;;;;;;;14.60;14.00;;;14.90;99.90;;;;;;5051729;28;21051;-64
2021/10/06 09:33:37;;;;;;;14.70;14.10;;;14.90;99.90;;;;;;5051889;28;20476;-65
2021/10/06 09:36:09;;;;;;;15.63;14.60;;;14.90;99.90;;;;;;5051919;28;20476;-64
2021/10/06 09:38:51;;;;;;;15.20;14.47;;;14.80;99.90;;;;;;5051513;28;20452;-64
2021/10/06 09:41:36;;;;;;;14.40;13.60;;;14.70;99.90;;;;;;5052034;28;20440;-64
2021/10/06 09:44:07;;;;;;;14.70;14.10;;;14.50;99.90;;;;;;5051609;28;20464;-64
2021/10/06 09:46:44;;;;;;;15.13;14.13;;;14.10;99.90;;;;;;5051535;28;20945;-64
2021/10/06 09:49:19;;;;;;;13.50;13.00;;;14.00;99.90;;;;;;5051508;28;20474;-64
2021/10/06 09:51:46;;;;;;;13.07;12.50;;;13.90;99.90;;;;;;5051482;28;20901;-64
2021/10/06 09:54:12;;;;;;;12.67;12.27;;;13.70;99.90;;;;;;5051835;28;20479;-63
2021/10/06 09:56:40;;;;;;;13.20;12.60;;;13.70;99.90;;;;;;5051463;28;20444;-64
2021/10/06 09:59:08;;;;;;;13.20;12.27;;;13.80;99.90;;;;;;5051311;28;20976;-64
2021/10/06 10:01:39;;;;;;;13.20;12.50;;;13.70;99.90;;;;;;5051534;28;20436;-64
2021/10/06 10:04:07;;;;;;;12.57;12.17;;;13.60;99.90;;;;;;5051515;28;20885;-64
2021/10/06 10:06:36;;;;;;;12.00;11.67;;;13.60;99.90;;;;;;5051345;28;20448;-65
2021/10/06 10:09:04;;;;;;;13.40;12.90;;;13.80;99.90;;;;;;5051213;28;20444;-64
2021/10/06 10:11:33;;;;;;;13.13;12.63;;;14.00;99.90;;;;;;5051228;28;20472;-64
2021/10/06 10:14:00;;;;;;;14.60;13.80;;;14.00;99.90;;;;;;5051201;28;20996;-65
2021/10/06 10:16:27;;;;;;;12.37;11.93;;;14.20;99.90;;;;;;5051074;28;20443;-64
2021/10/06 10:18:54;;;;;;;13.27;12.60;;;14.40;99.90;;;;;;5051161;28;20447;-63
2021/10/06 10:21:22;;;;;;;13.27;12.77;;;14.70;99.90;;;;;;5051357;28;20443;-65
2021/10/06 10:24:09;;;;;;;13.77;13.00;;;14.70;99.90;;;;;;5051271;28;20561;-64
2021/10/06 10:26:36;;;;;;;14.27;13.67;;;14.90;99.90;;;;;;5055353;28;20444;-64
2021/10/06 10:29:22;;;;;;;13.43;12.93;;;14.60;99.90;;;;;;5055087;28;20444;-64
2021/10/06 10:32:02;;;;;;;13.33;12.93;;;14.50;99.90;;;;;;5052693;28;20491;-64
2021/10/06 10:35:00;;;;;;;13.43;12.93;;;14.40;99.90;;;;;;5049210;28;20479;-64
2021/10/06 10:38:08;;;;;;;13.10;12.60;;;14.20;99.90;;;;;;5054598;28;20444;-63
2021/10/06 10:40:42;;;;;;;13.47;12.93;;;14.30;99.90;;;;;;5034635;28;20463;-64
2021/10/06 10:43:10;;;;;;;13.07;12.57;;;14.10;99.90;;;;;;5043839;28;20495;-64
2021/10/06 10:45:39;;;;;;;13.37;12.77;;;14.10;99.90;;;;;;5054696;28;20443;-64
2021/10/06 10:48:07;;;;;;;12.47;12.07;;;14.20;99.90;;;;;;5054840;28;20448;-63
2021/10/06 10:50:56;;;;;;;12.03;11.70;;;14.00;99.90;;;;;;5054515;28;20811;-64
2021/10/06 10:54:00;;;;;;;11.77;11.47;;;13.90;99.90;;;;;;5047623;28;20481;-63
2021/10/06 10:56:48;;;;;;;12.13;11.40;;;13.80;99.90;;;;;;5034954;28;20440;-63
2021/10/06 10:59:16;;;;;;;12.00;11.60;;;14.00;99.90;;;;;;5034397;28;20448;-63
2021/10/06 11:01:46;;;;;;;11.80;11.40;;;14.20;99.90;;;;;;5034565;28;20448;-63
2021/10/06 11:04:16;;;;;;;12.57;12.07;;;14.30;99.90;;;;;;5046826;28;20459;-63
2021/10/06 11:06:44;;;;;;;12.47;12.07;;;14.20;99.90;;;;;;5054732;28;20440;-63
2021/10/06 11:09:43;;;;;;;13.23;12.53;;;14.20;99.90;;;;;;5054461;28;20447;-63
2021/10/06 11:12:37;;;;;;;13.37;12.70;;;14.50;99.90;;;;;;5054365;28;20507;-63
2021/10/06 11:15:28;;;;;;;13.10;12.60;;;14.50;99.90;;;;;;5034720;28;20465;-64
2021/10/06 11:18:20;;;;;;;13.40;12.90;;;14.50;99.90;;;;;;5034245;28;20439;-63
2021/10/06 11:20:52;;;;;;;13.70;13.10;;;14.50;99.90;;;;;;5034260;28;20817;-64
2021/10/06 11:23:59;;;;;;;12.90;12.40;;;14.40;99.90;;;;;;5038355;28;20887;-63
2021/10/06 11:26:33;;;;;;;13.07;12.60;;;14.20;99.90;;;;;;5052129;28;20798;-64
2021/10/06 11:29:05;;;;;;;13.10;12.70;;;14.20;99.90;;;;;;5053650;28;20448;-64
2021/10/06 11:31:34;;;;;;;13.30;12.80;;;14.80;99.90;;;;;;5039350;28;20488;-63
2021/10/06 11:34:05;;;;;;;13.83;13.00;;;15.20;99.90;;;;;;5034145;28;20476;-64
2021/10/06 11:36:34;;;;;;;13.77;13.20;;;15.20;99.90;;;;;;5032977;28;20441;-63
2021/10/06 11:39:07;;;;;;;14.00;13.40;;;15.00;99.90;;;;;;5033820;28;20456;-63
2021/10/06 11:41:35;;;;;;;13.90;13.20;;;14.90;99.90;;;;;;5033849;28;20480;-64
2021/10/06 11:44:03;;;;;;;13.70;13.30;;;14.80;99.90;;;;;;5033897;28;20469;-63
2021/10/06 11:46:33;;;;;;;14.93;14.03;;;14.70;99.90;;;;;;5033862;28;20822;-64
2021/10/06 11:49:01;;;;;;;15.13;14.37;;;14.90;99.90;;;;;;5033648;28;20502;-63
2021/10/06 11:51:43;;;;;;;14.37;13.87;;;15.10;99.90;;;;;;5033798;28;20515;-64
2021/10/06 11:54:10;;;;;;;15.83;14.93;;;15.00;99.90;;;;;;5033641;28;20484;-63
2021/10/06 11:56:37;;;;;;;14.60;14.00;;;15.20;99.90;;;;;;5033681;28;20452;-63
2021/10/06 11:59:13;;;;;;;14.20;13.70;;;15.20;99.90;;;;;;5033478;28;20448;-64
2021/10/06 12:01:41;;;;;;;14.70;14.10;;;15.20;99.90;;;;;;5033761;28;20444;-63
2021/10/06 12:04:09;;;;;;;13.60;13.20;;;15.30;99.90;;;;;;5033475;28;20477;-63
2021/10/06 12:06:36;;;;;;;14.17;13.60;;;15.00;99.90;;;;;;5033534;28;20485;-64
2021/10/06 12:09:08;;;;;;;14.03;13.43;;;14.80;99.90;;;;;;5033370;28;20479;-64
2021/10/06 12:11:35;;;;;;;14.40;13.90;;;14.50;99.90;;;;;;5033397;28;20889;-64
2021/10/06 12:14:17;;;;;;;13.60;13.10;;;14.50;99.90;;;;;;5033514;28;20461;-63
2021/10/06 12:16:44;;;;;;;14.60;14.00;;;14.30;99.90;;;;;;5033291;28;20452;-64
2021/10/06 12:19:11;;;;;;;14.17;13.67;;;14.30;99.90;;;;;;5033297;28;20792;-63
2021/10/06 12:21:46;;;;;;;13.60;13.10;;;14.30;99.90;;;;;;5033177;28;20437;-63
2021/10/06 12:24:17;;;;;;;13.60;13.20;;;14.50;99.90;;;;;;5033045;28;20469;-64
2021/10/06 12:26:44;;;;;;;14.27;13.60;;;14.70;99.90;;;;;;5033205;28;20452;-63
2021/10/06 12:29:12;;;;;;;14.53;13.80;;;14.70;99.90;;;;;;5032909;28;20947;-63
2021/10/06 12:31:38;;;;;;;13.90;13.50;;;14.60;99.90;;;;;;5033064;28;20484;-63
2021/10/06 12:34:11;;;;;;;14.87;14.07;;;14.60;99.90;;;;;;5033099;28;20469;-63
2021/10/06 12:36:44;;;;;;;14.60;14.00;;;14.50;99.90;;;;;;5032882;28;20456;-63
2021/10/06 12:39:13;;;;;;;13.40;13.00;;;14.50;99.90;;;;;;5032747;28;20525;-63
2021/10/06 12:41:43;;;;;;;13.73;13.23;;;14.60;99.90;;;;;;5033074;28;20517;-63
2021/10/06 12:44:23;;;;;;;14.50;13.70;;;14.60;99.90;;;;;;5032790;28;20475;-64